UNEE/KEJ METAR and TAF weather

Enter ICAO airport designator
Station Type Date Time Source
UNEE METAR 2019/06/26 15:30 UTC NOAA

UNEE 261530Z 14002MPS CAVOK 19/13 Q1012 R23/CLRD60 NOSIG RMK QFE736


Station Type Date Time Source
UNEE Decoded METAR 2019/06/26 15:30 UTC NOAA

Kemerovo, Russia (UNEE) 55-19-48N 086-04-48E
Jun 26, 2019 - 11:30 AM EDT / 2019.06.26 1530 UTC
Wind: from the SE (140 degrees) at 4 MPH (4 KT):0
Visibility: greater than 7 mile(s):0
Temperature: 66 F (19 C)
Dew Point: 55 F (13 C)
Relative Humidity: 68%
Pressure (altimeter): 29.88 in. Hg (1012 hPa)
ob: UNEE 261530Z 14002MPS CAVOK 19/13 Q1012 R23/CLRD60 NOSIG RMK QFE736
cycle: 15

Station Type Date Time Source
UNEE TAF 2019/06/26 15:21 UTC NOAA

TAF UNEE 261400Z 2615/2715 14003G08MPS 9999 SCT020

Example: see airport list